WetterOnline ( https://www.wetteronline.de )

Wetter aktuell Lieberose

Aktuelles Wetter: Cottbus (70m)

6-stündlich | Neueste Meldungen
Ortszeit Temperatur Wetter
Do, 19.05. 8:00 17.6° C leicht bewölkt
Do, 19.05. 2:00 14.4° C wolkig
Mi, 18.05. 20:00 22.5° C fast wolkenlos
Mi, 18.05. 14:00 23.1° C wolkenlos
Mi, 18.05. 8:00 11.7° C wolkig
Mi, 18.05. 2:00 12.9° C wolkig
Di, 17.05. 20:00 18.3° C bedeckt
Di, 17.05. 14:00 15.5° C bewölkt
Ortszeit Temperatur Wetter
Do, 19.05. 8:00 17.6° C leicht bewölkt
Do, 19.05. 7:50 17.6° C wolkig
Do, 19.05. 7:40 17.0° C bedeckt
Do, 19.05. 7:30 16.2° C wolkig
Do, 19.05. 7:20 16.2° C wolkig
Do, 19.05. 7:10 16.1° C bedeckt
Do, 19.05. 7:00 14.8° C leicht bewölkt
Do, 19.05. 6:30 13.0° C wolkig
Do, 19.05. 6:00 10.8° C wolkig
Do, 19.05. 5:30 10.1° C wolkig
Do, 19.05. 5:00 10.7° C wolkig
Ortszeit Relative Feuchte Sichtweite
Do, 19.05. 8:00 51% >70 km
Do, 19.05. 2:00 52% 55 km
Mi, 18.05. 20:00 38% 55 km
Mi, 18.05. 14:00 32% 45 km
Mi, 18.05. 8:00 51% 50 km
Mi, 18.05. 2:00 82% 35 km
Di, 17.05. 20:00 71% 45 km
Di, 17.05. 14:00 81% 30 km
Ortszeit Relative Feuchte Sichtweite
Do, 19.05. 8:00 51% >70 km
Do, 19.05. 7:50 51% -
Do, 19.05. 7:40 51% -
Do, 19.05. 7:30 54% 55 km
Do, 19.05. 7:20 54% -
Do, 19.05. 7:10 55% -
Do, 19.05. 7:00 60% 55 km
Do, 19.05. 6:30 67% 45 km
Do, 19.05. 6:00 80% 60 km
Do, 19.05. 5:30 79% 60 km
Do, 19.05. 5:00 76% 50 km
Ortszeit Niederschlagsmenge Niederschlagsart
Do, 19.05. 8:00 0.0 l/m2 in 12 Std. -
Do, 19.05. 2:00 0.0 l/m2 in 6 Std. -
Mi, 18.05. 20:00 0.0 l/m2 in 12 Std. -
Mi, 18.05. 14:00 0.0 l/m2 in 6 Std. -
Mi, 18.05. 8:00 0.0 l/m2 in 12 Std. -
Mi, 18.05. 2:00 0.0 l/m2 in 6 Std. -
Di, 17.05. 20:00 7 l/m2 in 12 Std. -
Di, 17.05. 14:00 7 l/m2 in 6 Std. Regen
Ortszeit Niederschlagsmenge Niederschlagsart
Do, 19.05. 8:00 0.0 l/m2 in 1 Std. -
Do, 19.05. 7:50 keine Meldung -
Do, 19.05. 7:40 keine Meldung -
Do, 19.05. 7:30 0.0 l/m2 in 1 Std. -
Do, 19.05. 7:20 keine Meldung -
Do, 19.05. 7:10 keine Meldung -
Do, 19.05. 7:00 0.0 l/m2 in 1 Std. -
Do, 19.05. 6:30 0.0 l/m2 in 1 Std. -
Do, 19.05. 6:00 0.0 l/m2 in 1 Std. -
Do, 19.05. 5:30 0.0 l/m2 in 1 Std. -
Do, 19.05. 5:00 0.0 l/m2 in 1 Std. -
Ortszeit Stärke Spitze Richtung
km/h Bft. km/h Grad Sektor
Do, 19.05. 8:00 11 2 22 190° S
Do, 19.05. 2:00 7 2 22 120° SO
Mi, 18.05. 20:00 9 2 26 130° SO
Mi, 18.05. 14:00 7 2 28 170° S
Mi, 18.05. 8:00 13 3 31 100° O
Mi, 18.05. 2:00 14 3 25 70° O
Di, 17.05. 20:00 7 2 11 260° W
Di, 17.05. 14:00 4 1 22 260° W
Ortszeit Stärke Spitze Richtung
km/h Bft. km/h Grad Sektor
Do, 19.05. 8:00 11 2 22 190° S
Do, 19.05. 7:50 11 2 - 190° S
Do, 19.05. 7:40 11 2 - 190° S
Do, 19.05. 7:30 7 2 14 170° S
Do, 19.05. 7:20 7 2 - 170° S
Do, 19.05. 7:10 6 1 - 160° S
Do, 19.05. 7:00 4 1 11 140° SO
Do, 19.05. 6:30 4 1 7 70° O
Do, 19.05. 6:00 4 1 7 100° O
Do, 19.05. 5:30 2 1 6 110° O
Do, 19.05. 5:00 4 1 11 110° O
Ortszeit Untergrenze Bedeckung Gattung
total tief tief mittel hoch
Do, 19.05. 8:00 12000 m 8/8 0/8 - - -
Do, 19.05. 2:00 9000 m 8/8 0/8 - - -
Mi, 18.05. 20:00 9000 m 2/8 0/8 - - -
Mi, 18.05. 14:00 - 0/8 0/8 - - -
Mi, 18.05. 8:00 6300 m 8/8 8/8 - - -
Mi, 18.05. 2:00 9000 m 7/8 0/8 - - -
Di, 17.05. 20:00 4500 m 8/8 8/8 - - -
Di, 17.05. 14:00 2400 m 8/8 4/8 - - -
Ortszeit Bedeckungsgrad in Achtel und Wolkenuntergrenze
Do, 19.05. 8:00 8(12000m)
Do, 19.05. 7:50 8(12000m)
Do, 19.05. 7:40 8
Do, 19.05. 7:30 8(10500m)
Do, 19.05. 7:20 8(10500m)
Do, 19.05. 7:10 8
Do, 19.05. 7:00 8(10500m)
Do, 19.05. 6:30 8(10500m)
Do, 19.05. 6:00 8(10500m)
Do, 19.05. 5:30 7(10500m) 8(10500m)
Do, 19.05. 5:00 8(10500m)
Ortszeit Luftdruck NN (hPa) Tendenz (hPa in 3 Std.)
Do, 19.05. 8:00 1024 + 0,6
Do, 19.05. 2:00 1024 - 0,5
Mi, 18.05. 20:00 1024 - 0,4
Mi, 18.05. 14:00 1026 - 1,1
Mi, 18.05. 8:00 1027 + 1,0
Mi, 18.05. 2:00 1024 + 1,3
Di, 17.05. 20:00 1021 + 0,1
Di, 17.05. 14:00 1021 + 0,9
Ortszeit Luftdruck NN (hPa) Tendenz (hPa in 3 Std.)
Do, 19.05. 8:00 1024 + 0,6
Do, 19.05. 7:50 1024 keine Meldung
Do, 19.05. 7:40 1024 keine Meldung
Do, 19.05. 7:30 1024 + 0,4
Do, 19.05. 7:20 1024 keine Meldung
Do, 19.05. 7:10 1024 keine Meldung
Do, 19.05. 7:00 1024 + 0,3
Do, 19.05. 6:30 1024 + 0,1
Do, 19.05. 6:00 1024 - 0,2
Do, 19.05. 5:30 1024 - 0,5
Do, 19.05. 5:00 1023 - 0,9
Ortszeit Schneehöhe (cm)
Do, 19.05. 8:00 0
Do, 19.05. 2:00 0
Mi, 18.05. 20:00 0
Mi, 18.05. 14:00 0
Mi, 18.05. 8:00 0
Mi, 18.05. 2:00 0
Di, 17.05. 20:00 0
Di, 17.05. 14:00 0
Ortszeit Schneehöhe (cm)
Do, 19.05. 8:00 0
Do, 19.05. 7:50 0
Do, 19.05. 7:40 0
Do, 19.05. 7:30 0
Do, 19.05. 7:20 0
Do, 19.05. 7:10 0
Do, 19.05. 7:00 0
Do, 19.05. 6:30 0
Do, 19.05. 6:00 0
Do, 19.05. 5:30 0
Do, 19.05. 5:00 0
Link zu dieser Seite / Seite empfehlen

Das Wetter in ...